createdAt,value
2018-09-12T02:58:59.410Z,17.30
2018-09-12T03:01:27.340Z,18.90
2018-09-12T03:04:12.246Z,19.00
2018-09-12T03:06:42.393Z,19.00
2018-09-12T03:09:10.534Z,19.20
2018-09-12T03:11:38.325Z,19.30
2018-09-12T03:14:06.253Z,19.40
2018-09-12T03:16:34.069Z,19.50
2018-09-12T03:19:01.901Z,19.60
2018-09-12T03:21:29.784Z,19.50
2018-09-12T03:23:57.673Z,19.60
2018-09-12T03:26:25.649Z,19.70
2018-09-12T03:28:53.734Z,19.80
2018-09-12T03:31:21.665Z,19.80
2018-09-12T03:33:49.477Z,19.80
2018-09-12T03:36:17.363Z,19.80
2018-09-12T03:38:45.202Z,19.70
2018-09-12T03:41:13.229Z,19.10
2018-09-12T03:43:41.033Z,19.50
2018-09-12T03:46:08.916Z,19.60
2018-09-12T03:48:36.843Z,19.40
2018-09-12T03:51:04.734Z,19.50
2018-09-12T03:53:32.494Z,19.40
2018-09-12T03:56:00.264Z,19.70
2018-09-12T03:58:28.090Z,19.60
2018-09-12T04:00:55.995Z,19.60
2018-09-12T04:03:23.881Z,19.40
2018-09-12T04:05:51.696Z,19.20
2018-09-12T04:08:19.583Z,19.10
2018-09-12T04:10:47.381Z,18.90
2018-09-12T04:13:15.192Z,19.00
2018-09-12T04:15:42.973Z,19.00
2018-09-12T04:18:10.898Z,19.10
2018-09-12T04:20:38.977Z,19.00
2018-09-12T04:23:06.845Z,18.90
2018-09-12T04:25:34.709Z,18.90
2018-09-12T04:28:02.856Z,18.60
2018-09-12T04:30:30.697Z,18.80
2018-09-12T04:32:58.494Z,18.90
2018-09-12T04:35:26.308Z,19.00
2018-09-12T04:37:54.109Z,18.90
2018-09-12T04:40:22.154Z,18.80
2018-09-12T04:42:50.040Z,18.70
2018-09-12T04:45:17.761Z,18.60
2018-09-12T04:47:45.513Z,18.50
2018-09-12T04:50:13.309Z,18.40
2018-09-12T04:52:41.081Z,18.50
2018-09-12T04:55:09.637Z,18.20
2018-09-12T04:57:37.405Z,18.00
2018-09-12T05:00:05.307Z,18.10
2018-09-12T05:02:33.096Z,18.10
2018-09-12T05:05:00.909Z,18.10
2018-09-12T05:07:28.693Z,18.00
2018-09-12T05:09:56.437Z,18.10
2018-09-12T05:12:24.382Z,18.00
2018-09-12T05:14:52.160Z,18.00
2018-09-12T05:17:20.065Z,18.10
2018-09-12T05:19:47.831Z,18.20
2018-09-12T05:22:15.636Z,18.10
2018-09-12T05:24:43.416Z,18.30
2018-09-12T05:27:11.227Z,18.30
2018-09-12T05:29:38.957Z,18.30
2018-09-12T05:32:06.724Z,18.30
2018-09-12T05:34:34.810Z,18.40
2018-09-12T05:37:02.873Z,18.40
2018-09-12T05:39:30.664Z,18.40
2018-09-12T05:41:58.460Z,18.50
2018-09-12T05:44:26.252Z,18.40
2018-09-12T05:46:54.189Z,18.50
2018-09-12T05:49:22.074Z,18.50
2018-09-12T05:51:49.853Z,18.50
2018-09-12T05:54:17.645Z,18.50
2018-09-12T05:56:45.436Z,18.60
2018-09-12T05:59:13.228Z,18.80
2018-09-12T06:01:41.045Z,19.20
2018-09-12T06:04:08.853Z,19.50
2018-09-12T06:06:37.984Z,19.90
2018-09-12T06:09:07.433Z,20.10
2018-09-12T06:11:35.233Z,20.60
2018-09-12T06:14:03.243Z,21.00
2018-09-12T06:16:31.037Z,21.20
2018-09-12T06:18:58.913Z,21.60
2018-09-12T06:21:26.902Z,21.90
2018-09-12T06:23:57.373Z,22.20
2018-09-12T06:26:25.300Z,22.50
2018-09-12T06:28:55.245Z,22.70
2018-09-12T06:31:23.287Z,23.20
2018-09-12T06:33:51.057Z,23.20
2018-09-12T06:36:19.161Z,23.40
2018-09-12T06:38:46.999Z,23.50
2018-09-12T06:41:14.912Z,23.60
2018-09-12T06:43:42.725Z,23.80
2018-09-12T06:46:10.517Z,24.10
2018-09-12T06:48:38.409Z,24.20
2018-09-12T06:51:06.205Z,24.70
2018-09-12T06:53:33.984Z,24.90
2018-09-12T06:56:02.586Z,24.90
2018-09-12T06:58:31.442Z,25.00
2018-09-12T07:00:59.239Z,25.20
2018-09-12T07:03:29.622Z,25.40
2018-09-12T07:05:58.733Z,25.60
2018-09-12T07:08:26.526Z,25.70
2018-09-12T07:10:54.501Z,25.90
2018-09-12T07:13:22.357Z,26.20
2018-09-12T07:15:50.110Z,26.60
2018-09-12T07:18:17.909Z,26.50
2018-09-12T07:20:45.692Z,26.40
2018-09-12T07:23:13.482Z,26.60
2018-09-12T07:25:41.272Z,26.80
2018-09-12T07:28:09.033Z,26.80
2018-09-12T07:30:36.920Z,27.00
2018-09-12T07:33:04.781Z,27.10
2018-09-12T07:35:32.801Z,27.30
2018-09-12T07:38:00.907Z,27.70
2018-09-12T07:40:28.677Z,27.90
2018-09-12T07:42:56.524Z,28.30
2018-09-12T07:45:24.373Z,28.60
2018-09-12T07:47:52.332Z,29.00
2018-09-12T07:50:20.204Z,29.30
2018-09-12T07:52:48.013Z,29.80
2018-09-12T07:55:15.840Z,30.00
2018-09-12T07:57:43.649Z,30.30
2018-09-12T08:00:11.515Z,30.30
2018-09-12T08:02:39.258Z,30.60
2018-09-12T08:05:07.195Z,31.00
2018-09-12T08:07:34.957Z,31.20
2018-09-12T08:10:03.318Z,31.40
2018-09-12T08:12:31.101Z,31.60
2018-09-12T08:14:58.907Z,31.70
2018-09-12T08:17:26.690Z,32.00
2018-09-12T08:19:54.758Z,32.10
2018-09-12T08:22:22.587Z,32.30
2018-09-12T08:24:50.356Z,32.70
2018-09-12T08:27:18.149Z,32.60
2018-09-12T08:29:45.916Z,32.50
2018-09-12T08:32:13.724Z,32.50
2018-09-12T08:34:41.480Z,32.70
2018-09-12T08:37:09.257Z,32.70
2018-09-12T08:39:37.012Z,32.80
2018-09-12T08:42:04.866Z,32.60
2018-09-12T08:44:32.661Z,32.60
2018-09-12T08:47:00.505Z,32.60
2018-09-12T08:49:28.556Z,32.70
2018-09-12T08:51:56.394Z,33.30
2018-09-12T08:54:24.169Z,33.20
2018-09-12T08:56:52.175Z,32.80
2018-09-12T08:59:19.941Z,32.70
2018-09-12T09:01:47.709Z,32.90
2018-09-12T09:04:15.554Z,33.40
2018-09-12T09:06:43.365Z,33.30
2018-09-12T09:09:11.870Z,33.20
2018-09-12T09:11:39.736Z,33.30
2018-09-12T09:14:07.780Z,33.50
2018-09-12T09:16:35.562Z,33.70
2018-09-12T09:19:03.341Z,33.60
2018-09-12T09:21:31.657Z,33.60
2018-09-12T09:23:59.517Z,33.60
2018-09-12T09:26:27.325Z,33.60
2018-09-12T09:28:55.457Z,33.50
2018-09-12T09:31:23.406Z,33.70
2018-09-12T09:33:51.193Z,33.70
2018-09-12T09:36:19.000Z,33.70
2018-09-12T09:38:46.877Z,33.80
2018-09-12T09:41:14.708Z,34.20
2018-09-12T09:43:42.697Z,34.40
2018-09-12T09:46:10.544Z,34.50
2018-09-12T09:48:38.493Z,34.70
2018-09-12T09:51:06.312Z,35.10
2018-09-12T09:53:34.277Z,35.40
2018-09-12T09:56:02.746Z,35.50
2018-09-12T09:58:30.555Z,35.50
2018-09-12T10:01:04.081Z,36.10
2018-09-12T10:03:37.417Z,35.80
2018-09-12T10:06:10.767Z,35.90
2018-09-12T10:08:44.105Z,36.00
2018-09-12T10:11:11.880Z,36.00
2018-09-12T10:13:39.638Z,36.10
2018-09-12T10:16:07.410Z,36.30
2018-09-12T10:18:35.213Z,36.50
2018-09-12T10:21:03.000Z,36.60
2018-09-12T10:23:30.865Z,36.80
2018-09-12T10:25:58.668Z,37.00
2018-09-12T10:28:26.504Z,37.40
2018-09-12T10:30:54.453Z,37.80
2018-09-12T10:33:22.272Z,37.90
2018-09-12T10:35:50.161Z,38.20
2018-09-12T10:38:18.012Z,38.40
2018-09-12T10:40:46.659Z,38.70
2018-09-12T10:43:15.628Z,38.70
2018-09-12T10:45:44.226Z,38.80
2018-09-12T10:48:12.165Z,38.90
2018-09-12T10:50:39.932Z,39.00
2018-09-12T10:53:08.149Z,39.20
2018-09-12T10:55:35.986Z,39.30
2018-09-12T10:58:04.163Z,39.40
2018-09-12T11:00:32.030Z,39.50
2018-09-12T11:02:59.945Z,39.60
2018-09-12T11:05:27.888Z,39.70
2018-09-12T11:07:55.752Z,39.90
2018-09-12T11:10:24.138Z,40.00
2018-09-12T11:12:51.973Z,40.20
2018-09-12T11:15:19.786Z,40.30
2018-09-12T11:17:47.580Z,40.40
2018-09-12T11:20:15.365Z,40.50
2018-09-12T11:22:43.211Z,40.70
2018-09-12T11:25:11.034Z,40.80
2018-09-12T11:27:38.797Z,40.90
2018-09-12T11:30:06.652Z,41.00
2018-09-12T11:32:34.449Z,41.20
2018-09-12T11:35:02.299Z,41.30
2018-09-12T11:37:30.149Z,41.20
2018-09-12T11:39:57.993Z,41.00
2018-09-12T11:42:25.861Z,40.80
2018-09-12T11:44:53.886Z,40.80
2018-09-12T11:47:22.177Z,40.90
2018-09-12T11:49:49.994Z,41.00
2018-09-12T11:52:17.886Z,41.20
2018-09-12T11:54:45.688Z,41.40
2018-09-12T11:57:13.455Z,41.60
2018-09-12T11:59:41.269Z,41.80
2018-09-12T12:02:09.127Z,42.00
2018-09-12T12:04:36.873Z,42.30
2018-09-12T12:07:04.702Z,42.40
2018-09-12T12:09:32.498Z,42.50
2018-09-12T12:12:00.269Z,42.30
2018-09-12T12:14:28.069Z,42.00
2018-09-12T12:16:55.957Z,41.60
2018-09-12T12:19:23.790Z,41.40
2018-09-12T12:21:51.662Z,41.00
2018-09-12T12:24:19.428Z,40.80
2018-09-12T12:26:47.216Z,40.30
2018-09-12T12:29:14.988Z,40.30
2018-09-12T12:31:42.762Z,40.50
2018-09-12T12:34:10.546Z,40.60
2018-09-12T12:36:38.297Z,40.80
2018-09-12T12:39:08.309Z,41.10
2018-09-12T12:41:36.064Z,41.30
2018-09-12T12:44:03.894Z,41.60
2018-09-12T12:46:31.685Z,41.80
2018-09-12T12:48:59.632Z,42.00
2018-09-12T12:51:27.914Z,42.10
2018-09-12T12:53:55.881Z,42.20
2018-09-12T12:56:23.761Z,42.30
2018-09-12T12:58:53.441Z,42.50
2018-09-12T13:01:21.773Z,42.60
2018-09-12T13:03:52.321Z,42.70
2018-09-12T13:06:20.160Z,42.70
2018-09-12T13:08:47.973Z,42.90
2018-09-12T13:11:15.795Z,43.10
2018-09-12T13:13:43.604Z,43.20
2018-09-12T13:16:11.382Z,43.30
2018-09-12T13:18:39.157Z,43.30
2018-09-12T13:21:06.952Z,43.30
2018-09-12T13:23:34.751Z,43.40
2018-09-12T13:26:02.567Z,43.50
2018-09-12T13:28:30.421Z,43.50
2018-09-12T13:30:58.281Z,43.50
2018-09-12T13:33:26.125Z,43.50
2018-09-12T13:35:54.128Z,43.60
2018-09-12T13:38:21.921Z,43.60
2018-09-12T13:40:49.669Z,43.70
2018-09-12T13:43:17.525Z,43.60
2018-09-12T13:45:45.353Z,43.70
2018-09-12T13:48:13.165Z,43.80
2018-09-12T13:50:40.953Z,43.70
2018-09-12T13:53:08.701Z,43.70
2018-09-12T13:55:36.585Z,43.60
2018-09-12T13:58:04.421Z,43.50
2018-09-12T14:00:32.201Z,43.50
2018-09-12T14:03:02.057Z,43.50
2018-09-12T14:05:30.193Z,43.40
2018-09-12T14:07:58.196Z,43.40
2018-09-12T14:10:26.156Z,43.30
2018-09-12T14:12:53.991Z,43.30
2018-09-12T14:15:21.891Z,43.30
2018-09-12T14:17:49.956Z,43.30
2018-09-12T14:20:17.788Z,43.30
2018-09-12T14:22:45.839Z,43.20
2018-09-12T14:25:13.961Z,43.10
2018-09-12T14:27:41.763Z,43.10
2018-09-12T14:30:09.549Z,43.00
2018-09-12T14:32:37.317Z,43.00
2018-09-12T14:35:05.161Z,42.80
2018-09-12T14:37:32.929Z,42.80
2018-09-12T14:40:00.811Z,42.70
2018-09-12T14:42:28.648Z,42.60
2018-09-12T14:44:56.711Z,42.50
2018-09-12T14:47:24.514Z,42.50
2018-09-12T14:49:52.305Z,42.30
2018-09-12T14:52:20.243Z,42.30
2018-09-12T14:54:48.009Z,42.10
2018-09-12T14:57:15.834Z,42.00
2018-09-12T14:59:43.637Z,42.00
2018-09-12T15:02:11.429Z,41.80
2018-09-12T15:04:39.215Z,41.60
2018-09-12T15:07:07.114Z,41.40
2018-09-12T15:09:34.876Z,41.20
2018-09-12T15:12:02.726Z,40.80
2018-09-12T15:14:30.844Z,40.50
2018-09-12T15:16:58.633Z,40.10
2018-09-12T15:19:26.439Z,39.90
2018-09-12T15:21:54.361Z,39.60
2018-09-12T15:24:22.120Z,39.40
2018-09-12T15:26:49.939Z,39.20
2018-09-12T15:29:17.692Z,38.90
2018-09-12T15:31:45.433Z,38.70
2018-09-12T15:34:13.252Z,38.40
2018-09-12T15:36:41.009Z,38.10
2018-09-12T15:39:09.867Z,37.70
2018-09-12T15:41:37.658Z,37.40
2018-09-12T15:44:05.441Z,37.00
2018-09-12T15:46:33.261Z,36.70
2018-09-12T15:49:01.020Z,36.30
2018-09-12T15:51:28.910Z,35.90
2018-09-12T15:53:56.787Z,35.50
2018-09-12T15:56:24.594Z,35.20
2018-09-12T15:58:52.425Z,34.90
2018-09-12T16:01:20.197Z,34.60
2018-09-12T16:03:49.334Z,34.30
2018-09-12T16:06:17.084Z,34.00
2018-09-12T16:08:44.862Z,33.80
2018-09-12T16:11:12.641Z,33.60
2018-09-12T16:13:40.413Z,33.40
2018-09-12T16:16:08.193Z,33.20
2018-09-12T16:18:36.785Z,33.00
2018-09-12T16:21:04.705Z,32.80
2018-09-12T16:23:32.543Z,32.70
2018-09-12T16:26:00.394Z,32.60
2018-09-12T16:28:28.224Z,32.40
2018-09-12T16:30:56.265Z,32.30
2018-09-12T16:33:24.117Z,32.20
2018-09-12T16:35:51.944Z,32.00
2018-09-12T16:38:19.696Z,31.90
2018-09-12T16:40:47.507Z,31.80
2018-09-12T16:43:15.377Z,31.60
2018-09-12T16:45:43.555Z,31.40
2018-09-12T16:48:12.665Z,31.30
2018-09-12T16:50:41.638Z,31.20
2018-09-12T16:53:09.645Z,31.00
2018-09-12T16:55:37.492Z,30.90
2018-09-12T16:58:05.309Z,30.80
2018-09-12T17:00:33.138Z,30.70
2018-09-12T17:03:00.999Z,30.50
2018-09-12T17:05:28.793Z,30.40
2018-09-12T17:07:56.880Z,30.20
2018-09-12T17:10:24.717Z,29.90
2018-09-12T17:12:52.540Z,29.80
2018-09-12T17:15:21.020Z,29.60
2018-09-12T17:17:49.669Z,29.40
2018-09-12T17:20:17.549Z,29.20
2018-09-12T17:22:45.296Z,29.00
2018-09-12T17:25:13.096Z,28.80
2018-09-12T17:27:40.865Z,28.70
2018-09-12T17:30:08.677Z,28.50
2018-09-12T17:32:36.468Z,28.30
2018-09-12T17:35:04.313Z,28.00
2018-09-12T17:37:32.205Z,27.80
2018-09-12T17:40:00.014Z,27.70
2018-09-12T17:42:28.960Z,27.50
2018-09-12T17:44:57.001Z,27.30
2018-09-12T17:47:24.753Z,27.10
2018-09-12T17:49:52.572Z,26.90
2018-09-12T17:52:20.351Z,26.70
2018-09-12T17:54:56.146Z,26.60
2018-09-12T17:57:23.979Z,26.40
2018-09-12T17:59:51.894Z,26.20
2018-09-12T18:02:20.941Z,26.10
2018-09-12T18:04:50.849Z,26.00
2018-09-12T18:07:18.725Z,25.90
2018-09-12T18:09:46.533Z,25.70
2018-09-12T18:12:14.377Z,25.60
2018-09-12T18:14:42.204Z,25.60
2018-09-12T18:17:09.991Z,25.50
2018-09-12T18:19:37.772Z,25.40
2018-09-12T18:22:05.684Z,25.20
2018-09-12T18:24:39.386Z,25.10
2018-09-12T18:27:07.344Z,25.00
2018-09-12T18:29:35.165Z,25.20
2018-09-12T18:32:02.997Z,25.20
2018-09-12T18:34:30.932Z,25.20
2018-09-12T18:36:58.813Z,25.10
2018-09-12T18:39:26.860Z,25.00
2018-09-12T18:41:54.703Z,25.00
2018-09-12T18:44:22.526Z,24.90
2018-09-12T18:46:50.424Z,24.80
2018-09-12T18:49:20.389Z,24.90
2018-09-12T18:51:48.173Z,24.90
2018-09-12T18:54:15.980Z,24.90
2018-09-12T18:56:43.772Z,24.90
2018-09-12T18:59:11.583Z,24.80
2018-09-12T19:01:39.341Z,24.70
2018-09-12T19:04:07.458Z,24.60
2018-09-12T19:06:35.480Z,24.50
2018-09-12T19:09:04.367Z,24.50
2018-09-12T19:11:32.144Z,24.50
2018-09-12T19:13:59.977Z,24.40
2018-09-12T19:16:27.895Z,24.50
2018-09-12T19:18:55.840Z,24.50
2018-09-12T19:21:23.901Z,24.60
2018-09-12T19:23:51.633Z,24.50
2018-09-12T19:26:19.459Z,24.50
2018-09-12T19:28:47.241Z,24.60
2018-09-12T19:31:15.053Z,24.60
2018-09-12T19:33:42.821Z,24.50
2018-09-12T19:36:10.684Z,24.60
2018-09-12T19:38:38.477Z,24.50
2018-09-12T19:41:06.589Z,24.60
2018-09-12T19:43:34.381Z,24.60
2018-09-12T19:46:02.237Z,24.50
2018-09-12T19:48:30.097Z,24.50
2018-09-12T19:51:00.189Z,24.50
2018-09-12T19:53:28.093Z,24.60
2018-09-12T19:55:56.220Z,24.60
2018-09-12T19:58:23.966Z,24.50
2018-09-12T20:00:51.778Z,24.60
2018-09-12T20:03:19.604Z,24.60
2018-09-12T20:05:47.465Z,24.50
2018-09-12T20:08:15.466Z,24.50
2018-09-12T20:10:43.342Z,24.50
2018-09-12T20:13:11.869Z,24.50
2018-09-12T20:15:39.810Z,24.40
2018-09-12T20:18:07.793Z,24.40
2018-09-12T20:20:35.742Z,24.40
2018-09-12T20:23:03.809Z,24.40
2018-09-12T20:25:31.899Z,24.30
2018-09-12T20:27:59.827Z,24.30
2018-09-12T20:30:27.877Z,24.20
2018-09-12T20:32:55.931Z,24.10
2018-09-12T20:35:23.903Z,24.00
2018-09-12T20:37:51.897Z,24.00
2018-09-12T20:40:26.582Z,23.90
2018-09-12T20:42:54.642Z,23.80
2018-09-12T20:45:22.936Z,23.70
2018-09-12T20:47:51.006Z,23.70
2018-09-12T20:50:19.020Z,23.50
2018-09-12T20:52:49.078Z,23.50
2018-09-12T20:55:17.030Z,23.50
2018-09-12T20:57:44.984Z,23.50
2018-09-12T21:00:12.905Z,23.50
2018-09-12T21:02:40.815Z,23.50
2018-09-12T21:05:09.112Z,23.40
2018-09-12T21:07:36.989Z,23.40
2018-09-12T21:10:05.469Z,23.30
2018-09-12T21:12:33.392Z,23.40
2018-09-12T21:15:01.484Z,23.50
2018-09-12T21:17:29.471Z,23.40
2018-09-12T21:19:57.397Z,23.30
2018-09-12T21:22:25.614Z,23.30
2018-09-12T21:24:53.657Z,23.30
2018-09-12T21:27:21.492Z,23.20
2018-09-12T21:29:49.326Z,23.30
2018-09-12T21:32:17.359Z,23.30
2018-09-12T21:34:46.597Z,23.30
2018-09-12T21:37:14.501Z,23.20
2018-09-12T21:39:42.624Z,23.30
2018-09-12T21:42:10.608Z,23.40
2018-09-12T21:44:38.673Z,23.60
2018-09-12T21:47:06.514Z,23.60
2018-09-12T21:49:34.637Z,23.60
2018-09-12T21:52:02.867Z,23.60
2018-09-12T21:54:30.966Z,23.60
2018-09-12T21:56:59.377Z,23.70
2018-09-12T21:59:27.746Z,23.70
2018-09-12T22:01:55.807Z,23.40
2018-09-12T22:04:23.683Z,23.60
2018-09-12T22:06:51.732Z,23.80
2018-09-12T22:09:19.755Z,23.60
2018-09-12T22:11:47.616Z,23.70
2018-09-12T22:14:15.613Z,23.50
2018-09-12T22:16:43.472Z,23.50
2018-09-12T22:19:11.333Z,23.30
2018-09-12T22:21:39.177Z,23.20
2018-09-12T22:24:07.109Z,23.10
2018-09-12T22:26:34.984Z,23.10
2018-09-12T22:29:02.853Z,23.10
2018-09-12T22:31:30.767Z,23.00
2018-09-12T22:33:58.840Z,23.00
2018-09-12T22:36:33.299Z,23.00
2018-09-12T22:39:07.696Z,22.80
2018-09-12T22:41:35.769Z,22.80
2018-09-12T22:44:03.822Z,22.80
2018-09-12T22:46:35.485Z,22.70
2018-09-12T22:49:05.725Z,22.70
2018-09-12T22:51:33.673Z,22.70
2018-09-12T22:54:03.634Z,22.50
2018-09-12T22:56:39.298Z,22.30
2018-09-12T22:59:07.189Z,22.10
2018-09-12T23:01:35.182Z,22.10
2018-09-12T23:04:03.109Z,21.90
2018-09-12T23:06:32.244Z,21.80
2018-09-12T23:09:00.696Z,21.70
2018-09-12T23:11:28.717Z,21.60
2018-09-12T23:13:56.564Z,21.50
2018-09-12T23:16:24.476Z,21.50
2018-09-12T23:18:52.313Z,21.40
2018-09-12T23:21:20.180Z,21.40
2018-09-12T23:23:48.333Z,21.30
2018-09-12T23:26:16.361Z,22.20
2018-09-12T23:28:44.424Z,21.20
2018-09-12T23:31:12.457Z,21.20
2018-09-12T23:33:40.514Z,21.20
2018-09-12T23:36:08.528Z,21.10
2018-09-12T23:38:36.695Z,21.00
2018-09-12T23:41:04.773Z,21.00
2018-09-12T23:43:32.755Z,20.90
2018-09-12T23:46:00.738Z,20.90
2018-09-12T23:48:28.769Z,20.80
2018-09-12T23:50:56.750Z,20.80
2018-09-12T23:53:25.042Z,21.00
2018-09-12T23:55:53.018Z,21.10
2018-09-12T23:58:20.937Z,21.20
